Time;durP1;ratioP1;P1;durP2;ratioP2;P2;SDS_P1;SDS_P2;PMS_P1;PMS_P2;Temp;Humidity;BMP_temperature;BMP_pressure;BME280_temperature;BME280_humidity;BME280_pressure;Samples;Min_cycle;Max_cycle;Signal;HPM_P1;HPM_P2
2021/11/26 00:00:35;;;;;;;;;5.25;3.25;;;;;19.97;36.10;100731.09;5003561;27;51162;-53
2021/11/26 00:03:01;;;;;;;;;2.00;2.00;;;;;19.95;35.99;100731.31;4998910;28;51159;-54
2021/11/26 00:05:26;;;;;;;;;2.25;2.00;;;;;19.94;36.25;100728.78;5002597;27;51417;-54
2021/11/26 00:07:51;;;;;;;;;2.50;2.25;;;;;19.91;36.35;100741.09;5001132;27;51977;-53
2021/11/26 00:10:19;;;;;;;;;2.50;2.00;;;;;19.90;36.50;100722.88;5003658;27;51174;-54
2021/11/26 00:12:51;;;;;;;;;3.00;2.25;;;;;19.87;36.28;100720.59;4994331;27;51229;-54
2021/11/26 00:15:37;;;;;;;;;3.00;3.00;;;;;19.86;36.25;100717.00;5000500;28;51203;-52
2021/11/26 00:18:07;;;;;;;;;3.00;3.00;;;;;19.86;36.21;100716.16;5023992;27;51779;-53
2021/11/26 00:20:34;;;;;;;;;3.50;3.25;;;;;19.85;36.13;100715.31;5003255;28;51244;-53
2021/11/26 00:23:00;;;;;;;;;2.50;1.25;;;;;19.83;36.13;100706.44;5002573;28;51018;-55
2021/11/26 00:25:25;;;;;;;;;2.00;2.00;;;;;19.81;35.99;100711.31;4999250;27;51216;-53
2021/11/26 00:27:51;;;;;;;;;2.75;2.25;;;;;19.80;36.58;100712.41;5005879;28;51152;-54
2021/11/26 00:30:17;;;;;;;;;5.00;3.25;;;;;19.78;36.12;100711.75;5006250;27;51043;-55
2021/11/26 00:32:42;;;;;;;;;2.00;2.00;;;;;19.78;36.24;100724.66;5004857;27;51068;-52
2021/11/26 00:35:08;;;;;;;;;3.00;2.00;;;;;19.76;36.21;100716.63;4996814;28;51326;-53
2021/11/26 00:37:34;;;;;;;;;4.50;2.75;;;;;19.74;36.19;100716.00;5002043;28;52056;-51
2021/11/26 00:39:59;;;;;;;;;2.00;1.25;;;;;19.74;36.13;100715.16;5003035;28;51141;-52
2021/11/26 00:42:25;;;;;;;;;2.00;2.00;;;;;19.72;36.30;100703.56;5006050;27;51057;-53
2021/11/26 00:44:50;;;;;;;;;3.75;2.75;;;;;19.71;36.42;100704.63;5006213;28;51168;-53
2021/11/26 00:47:16;;;;;;;;;2.00;2.00;;;;;19.70;36.30;100697.44;5002687;27;51019;-53
2021/11/26 00:49:41;;;;;;;;;2.25;2.00;;;;;19.67;36.29;100701.47;5006042;27;51093;-54
2021/11/26 00:52:06;;;;;;;;;2.75;2.50;;;;;19.66;36.27;100699.78;5001266;27;51064;-53
2021/11/26 00:54:32;;;;;;;;;1.00;1.00;;;;;19.65;36.62;100702.75;4985936;28;51800;-53
2021/11/26 00:56:57;;;;;;;;;4.50;2.00;;;;;19.64;36.22;100688.16;5000733;28;51699;-53
2021/11/26 00:59:23;;;;;;;;;2.00;2.00;;;;;19.62;36.45;100692.22;5003483;28;51099;-53
2021/11/26 01:01:48;;;;;;;;;2.00;2.00;;;;;19.62;36.31;100690.31;5005806;27;50977;-50
2021/11/26 01:04:13;;;;;;;;;2.00;1.75;;;;;19.60;36.26;100696.03;5006073;27;51408;-51
2021/11/26 01:06:39;;;;;;;;;3.75;2.75;;;;;19.58;36.50;100687.13;5001728;28;51717;-54
2021/11/26 01:09:04;;;;;;;;;2.75;2.50;;;;;19.58;36.14;100686.28;5002532;27;51139;-53
2021/11/26 01:11:29;;;;;;;;;2.00;2.00;;;;;19.57;36.45;100679.09;5003277;28;51071;-49
2021/11/26 01:13:55;;;;;;;;;1.25;1.25;;;;;19.57;36.40;100684.59;5003037;28;50956;-53
2021/11/26 01:16:20;;;;;;;;;2.75;2.00;;;;;19.55;36.50;100682.09;5002100;28;52238;-53
2021/11/26 01:18:46;;;;;;;;;3.50;3.50;;;;;19.55;36.42;100683.97;5003473;27;51239;-54
2021/11/26 01:21:11;;;;;;;;;2.25;2.00;;;;;19.54;36.56;100679.53;5029476;27;51190;-54
2021/11/26 01:23:40;;;;;;;;;3.00;2.75;;;;;19.53;36.52;100686.09;5002634;28;51319;-53
2021/11/26 01:26:06;;;;;;;;;1.75;1.75;;;;;19.49;36.33;100674.72;5003480;28;52011;-54
2021/11/26 01:28:32;;;;;;;;;2.00;2.00;;;;;19.50;36.25;100675.53;5000072;27;50983;-53
2021/11/26 01:30:58;;;;;;;;;3.50;2.75;;;;;19.49;36.37;100662.88;5007120;28;51071;-53
2021/11/26 01:33:23;;;;;;;;;4.50;3.00;;;;;19.48;36.36;100677.66;4995975;28;51387;-53
2021/11/26 01:35:52;;;;;;;;;2.25;2.25;;;;;19.46;36.33;100655.88;4992716;28;52024;-53
2021/11/26 01:38:18;;;;;;;;;3.00;2.25;;;;;19.46;36.26;100671.53;5003188;28;51091;-53
2021/11/26 01:40:45;;;;;;;;;4.00;2.00;;;;;19.45;36.41;100659.69;5004147;28;51305;-53
2021/11/26 01:43:13;;;;;;;;;3.25;3.00;;;;;19.42;36.45;100651.91;5005392;28;51139;-54
2021/11/26 01:45:40;;;;;;;;;3.00;3.00;;;;;19.43;36.28;100648.09;4981187;28;51766;-52
2021/11/26 01:48:05;;;;;;;;;3.00;1.25;;;;;19.41;36.48;100646.66;5004500;28;51535;-53
2021/11/26 01:50:31;;;;;;;;;2.00;2.00;;;;;19.41;36.45;100650.22;5003713;28;51082;-52
2021/11/26 01:52:56;;;;;;;;;1.25;1.25;;;;;19.40;36.58;100644.97;5005490;28;51279;-49
2021/11/26 01:55:21;;;;;;;;;3.25;3.25;;;;;19.39;36.42;100641.38;4994823;27;53874;-53
2021/11/26 01:57:47;;;;;;;;;1.00;1.00;;;;;19.39;36.37;100640.53;5006758;27;51223;-54
2021/11/26 02:00:16;;;;;;;;;1.25;1.25;;;;;19.38;36.45;100638.81;5004331;28;50980;-54
2021/11/26 02:02:42;;;;;;;;;3.25;3.25;;;;;19.36;36.23;100633.56;5005311;27;50997;-53
2021/11/26 02:05:07;;;;;;;;;5.75;2.50;;;;;19.35;36.41;100620.03;5004889;27;51318;-54
2021/11/26 02:07:33;;;;;;;;;2.25;2.25;;;;;19.35;36.47;100615.38;5002453;28;51012;-54
2021/11/26 02:09:58;;;;;;;;;2.75;1.75;;;;;19.34;36.35;100613.72;4985105;28;51217;-54
2021/11/26 02:12:24;;;;;;;;;3.00;1.00;;;;;19.32;36.26;100608.44;5002992;28;51246;-54
2021/11/26 02:14:49;;;;;;;;;1.25;1.25;;;;;19.33;36.58;100612.03;5000934;28;51890;-53
2021/11/26 02:17:15;;;;;;;;;2.25;2.00;;;;;19.32;36.41;100607.59;5002072;28;51071;-54
2021/11/26 02:19:40;;;;;;;;;1.00;1.00;;;;;19.31;36.58;100597.69;5024192;27;51428;-52
2021/11/26 02:22:06;;;;;;;;;2.00;2.00;;;;;19.31;36.62;100604.00;5007056;27;51202;-53
2021/11/26 02:24:32;;;;;;;;;2.75;2.00;;;;;19.28;36.66;100587.97;5004283;28;51169;-51
2021/11/26 02:26:57;;;;;;;;;1.00;1.00;;;;;19.29;36.54;100586.09;5011112;28;51116;-52
2021/11/26 02:29:24;;;;;;;;;1.75;1.75;;;;;19.28;36.28;100590.72;5003733;27;51363;-53
2021/11/26 02:31:49;;;;;;;;;2.00;2.00;;;;;19.27;36.45;100585.44;4997278;27;51460;-54
2021/11/26 02:34:15;;;;;;;;;4.00;3.00;;;;;19.26;36.47;100584.59;5004641;27;51734;-54
2021/11/26 02:36:41;;;;;;;;;3.50;2.00;;;;;19.24;36.44;100578.47;5003573;27;51115;-51
2021/11/26 02:39:09;;;;;;;;;2.00;1.25;;;;;19.25;36.80;100579.31;5003710;27;51120;-54
2021/11/26 02:41:39;;;;;;;;;5.00;2.50;;;;;19.24;36.55;100580.38;5007543;28;50923;-53
2021/11/26 02:44:05;;;;;;;;;2.00;2.00;;;;;19.23;36.28;100578.72;5001479;27;51403;-50
2021/11/26 02:46:31;;;;;;;;;4.25;2.00;;;;;19.23;36.52;100584.19;4976784;28;51231;-52
2021/11/26 02:48:56;;;;;;;;;2.00;2.00;;;;;19.22;36.47;100577.03;5001271;28;51127;-53
2021/11/26 02:51:22;;;;;;;;;1.00;1.00;;;;;19.22;36.46;100566.03;5002056;28;51201;-50
2021/11/26 02:53:47;;;;;;;;;0.75;0.75;;;;;19.20;36.54;100569.00;4993983;28;53976;-55
2021/11/26 02:56:13;;;;;;;;;1.00;1.00;;;;;19.18;36.35;100559.31;5005723;27;51023;-54
2021/11/26 02:58:38;;;;;;;;;3.50;1.00;;;;;19.20;36.67;100557.19;5002958;27;51071;-53
2021/11/26 03:01:04;;;;;;;;;1.75;1.75;;;;;19.17;36.64;100541.97;5005526;28;50987;-54
2021/11/26 03:03:29;;;;;;;;;2.00;1.50;;;;;19.16;36.28;100533.97;5000902;28;51688;-53
2021/11/26 03:06:06;;;;;;;;;2.50;1.25;;;;;19.16;36.51;100547.69;5007403;28;50940;-53
2021/11/26 03:08:33;;;;;;;;;1.25;1.25;;;;;19.15;36.27;100538.63;4997629;28;51135;-54
2021/11/26 03:11:01;;;;;;;;;2.50;2.50;;;;;19.15;36.68;100526.78;5004830;28;50997;-52
2021/11/26 03:13:26;;;;;;;;;3.00;1.00;;;;;19.14;36.46;100528.69;5004040;28;51905;-53
2021/11/26 03:15:54;;;;;;;;;1.75;1.75;;;;;19.12;36.53;100516.25;5007035;27;51135;-53
2021/11/26 03:18:20;;;;;;;;;3.50;3.25;;;;;19.13;36.34;100529.75;5001740;28;51194;-55
2021/11/26 03:20:47;;;;;;;;;1.25;1.25;;;;;19.12;36.61;100521.75;5023468;27;51204;-53
2021/11/26 03:23:13;;;;;;;;;3.25;1.75;;;;;19.11;36.80;100523.66;5002614;27;52025;-54
2021/11/26 03:25:41;;;;;;;;;2.50;1.25;;;;;19.10;36.44;100513.75;5007695;28;51146;-50
2021/11/26 03:28:07;;;;;;;;;2.00;2.00;;;;;19.10;36.77;100519.22;4991690;27;51166;-53
2021/11/26 03:30:33;;;;;;;;;2.00;2.00;;;;;19.10;36.59;100515.66;4995030;28;51024;-54
2021/11/26 03:32:58;;;;;;;;;1.50;1.00;;;;;19.08;36.72;100504.88;5003600;27;51096;-53
2021/11/26 03:35:24;;;;;;;;;2.75;2.75;;;;;19.08;36.70;100501.31;5006182;28;51180;-51
2021/11/26 03:37:49;;;;;;;;;4.00;1.75;;;;;19.08;37.00;100498.56;5003765;28;51361;-53
2021/11/26 03:40:18;;;;;;;;;1.25;1.00;;;;;19.07;37.05;100488.59;5002746;27;51194;-55
2021/11/26 03:42:45;;;;;;;;;2.75;2.75;;;;;19.04;36.90;100470.69;5005828;27;51436;-54
2021/11/26 03:45:11;;;;;;;;;1.25;1.25;;;;;19.07;36.97;100480.38;5007010;27;51497;-54
2021/11/26 03:47:37;;;;;;;;;1.00;0.75;;;;;19.04;36.80;100465.19;5005623;28;51202;-55
2021/11/26 03:50:04;;;;;;;;;3.50;2.50;;;;;19.06;36.75;100464.97;5003915;27;51239;-53
2021/11/26 03:52:29;;;;;;;;;5.50;2.25;;;;;19.04;36.88;100462.44;4999969;27;53331;-54
2021/11/26 03:54:54;;;;;;;;;3.00;1.00;;;;;19.05;36.89;100469.63;5004890;28;51063;-52
2021/11/26 03:57:20;;;;;;;;;2.00;1.50;;;;;19.04;36.81;100467.94;5002882;27;51433;-53
2021/11/26 03:59:45;;;;;;;;;1.00;1.00;;;;;19.03;36.83;100463.53;5008202;28;51210;-54
2021/11/26 04:02:11;;;;;;;;;2.75;2.00;;;;;19.01;36.54;100461.00;5008764;27;51514;-53
2021/11/26 04:04:37;;;;;;;;;1.00;0.25;;;;;19.01;36.64;100455.50;5005082;28;51135;-51
2021/11/26 04:07:02;;;;;;;;;3.25;1.75;;;;;19.01;36.84;100455.50;5008085;27;51105;-54
2021/11/26 04:09:28;;;;;;;;;3.75;2.00;;;;;19.00;36.75;100453.00;5007988;27;51140;-53
2021/11/26 04:11:54;;;;;;;;;3.25;1.00;;;;;18.99;36.74;100452.16;5004531;28;51181;-53
2021/11/26 04:14:19;;;;;;;;;1.00;1.00;;;;;18.99;36.79;100441.16;5004027;28;51188;-54
2021/11/26 04:16:46;;;;;;;;;1.00;0.25;;;;;18.97;36.70;100446.06;5011845;27;51214;-53
2021/11/26 04:19:12;;;;;;;;;2.50;2.00;;;;;18.97;36.69;100432.31;5005245;27;51279;-52
2021/11/26 04:21:37;;;;;;;;;2.25;1.00;;;;;18.94;36.68;100427.25;5033469;27;50957;-51
2021/11/26 04:24:03;;;;;;;;;2.00;1.50;;;;;18.94;36.80;100430.00;5003753;28;51151;-53
2021/11/26 04:26:29;;;;;;;;;1.00;1.00;;;;;18.91;36.55;100418.63;5008272;28;51107;-55
2021/11/26 04:28:55;;;;;;;;;2.50;1.50;;;;;18.94;36.77;100427.25;5007721;27;52332;-54
2021/11/26 04:31:20;;;;;;;;;1.50;0.75;;;;;18.93;36.64;100420.09;5011258;27;51589;-54
2021/11/26 04:33:47;;;;;;;;;1.25;1.25;;;;;18.93;36.65;100422.00;5006451;27;51179;-54
2021/11/26 04:36:14;;;;;;;;;1.50;1.00;;;;;18.93;36.88;100419.25;5007230;28;51195;-54
2021/11/26 04:38:40;;;;;;;;;3.00;1.50;;;;;18.92;36.73;100412.91;5003597;27;51160;-54
2021/11/26 04:41:06;;;;;;;;;1.75;1.75;;;;;18.88;36.73;100400.72;5011050;28;51647;-52
2021/11/26 04:43:31;;;;;;;;;1.75;1.75;;;;;18.91;36.75;100392.03;5014884;27;51134;-55
2021/11/26 04:45:57;;;;;;;;;3.75;2.50;;;;;18.91;36.75;100399.44;5010411;27;51073;-55
2021/11/26 04:48:24;;;;;;;;;3.00;2.25;;;;;18.90;36.72;100397.75;5004298;27;51164;-53
2021/11/26 04:50:51;;;;;;;;;2.50;2.50;;;;;18.89;36.82;100396.91;5024585;27;52863;-53
2021/11/26 04:53:17;;;;;;;;;2.00;1.50;;;;;18.89;36.81;100399.66;5004806;27;51112;-54
2021/11/26 04:55:42;;;;;;;;;2.00;2.00;;;;;18.88;36.67;100391.66;5008555;28;51219;-58
2021/11/26 04:58:08;;;;;;;;;2.00;2.00;;;;;18.87;36.76;100389.97;5011262;27;51484;-54
2021/11/26 05:00:34;;;;;;;;;1.25;1.00;;;;;18.88;36.90;100386.16;5000967;27;51739;-54
2021/11/26 05:02:59;;;;;;;;;2.00;2.00;;;;;18.86;36.91;100385.50;5005395;27;51191;-54
2021/11/26 05:05:25;;;;;;;;;2.00;1.00;;;;;18.86;36.76;100375.41;5005909;28;51111;-50
2021/11/26 05:07:50;;;;;;;;;2.50;1.00;;;;;18.80;36.70;100370.78;5006385;27;50994;-53
2021/11/26 05:10:20;;;;;;;;;2.25;1.25;;;;;18.84;36.70;100368.44;5005509;28;51104;-53
2021/11/26 05:12:56;;;;;;;;;2.00;2.00;;;;;18.82;36.84;100362.34;5000459;27;51146;-53
2021/11/26 05:15:26;;;;;;;;;1.00;1.00;;;;;18.82;36.73;100365.09;5011069;27;51157;-54
2021/11/26 05:17:54;;;;;;;;;3.00;2.00;;;;;18.82;36.86;100357.69;5010438;27;51106;-54
2021/11/26 05:20:20;;;;;;;;;2.75;2.00;;;;;18.81;36.68;100356.00;5004149;27;51221;-53
2021/11/26 05:22:45;;;;;;;;;2.00;2.00;;;;;18.81;36.72;100364.25;5019206;27;50991;-54
2021/11/26 05:25:11;;;;;;;;;2.25;2.25;;;;;18.78;36.80;100350.97;5002923;27;51539;-53
2021/11/26 05:27:37;;;;;;;;;3.00;2.00;;;;;18.80;36.82;100354.31;5010417;28;51183;-51
2021/11/26 05:30:03;;;;;;;;;4.50;3.00;;;;;18.79;36.79;100336.19;5004692;27;51259;-54
2021/11/26 05:32:28;;;;;;;;;2.00;2.00;;;;;18.77;36.63;100332.84;5012182;28;51100;-53
2021/11/26 05:34:54;;;;;;;;;3.75;1.75;;;;;18.75;37.01;100326.69;5003565;27;51092;-53
2021/11/26 05:37:19;;;;;;;;;3.00;2.00;;;;;18.74;36.83;100316.78;5010642;27;51014;-54
2021/11/26 05:39:44;;;;;;;;;4.50;3.00;;;;;18.75;37.04;100308.34;5004658;28;51199;-52
2021/11/26 05:42:09;;;;;;;;;2.50;1.75;;;;;18.77;36.65;100316.38;5009069;28;51274;-53
2021/11/26 05:44:35;;;;;;;;;3.00;2.50;;;;;18.75;36.73;100319.31;5009539;28;51240;-54
2021/11/26 05:47:00;;;;;;;;;4.75;3.00;;;;;18.73;37.02;100312.38;5011768;28;51012;-52
2021/11/26 05:49:26;;;;;;;;;4.25;4.00;;;;;18.73;36.33;100312.38;4983579;28;52828;-53
2021/11/26 05:51:51;;;;;;;;;7.75;7.75;;;;;18.72;36.04;100313.44;5007608;28;51030;-53
2021/11/26 05:54:16;;;;;;;;;7.00;7.00;;;;;18.67;35.56;100300.41;5003958;27;51044;-52
2021/11/26 05:56:42;;;;;;;;;11.00;7.50;;;;;18.60;35.67;100296.84;5012823;28;51161;-53
2021/11/26 05:59:07;;;;;;;;;6.75;6.50;;;;;18.58;35.56;100307.19;5002011;28;51167;-52
2021/11/26 06:01:32;;;;;;;;;9.75;6.75;;;;;18.54;35.41;100299.63;5009224;27;50956;-51
2021/11/26 06:03:58;;;;;;;;;7.25;7.25;;;;;18.50;35.31;100290.16;5004599;27;51306;-52
2021/11/26 06:06:23;;;;;;;;;10.25;8.00;;;;;18.44;35.28;100294.63;5009383;28;51116;-52
2021/11/26 06:08:49;;;;;;;;;12.00;10.25;;;;;18.38;35.01;100282.66;5004660;28;51575;-53
2021/11/26 06:11:14;;;;;;;;;11.75;8.50;;;;;18.34;35.37;100278.69;4996463;27;51057;-52
2021/11/26 06:13:39;;;;;;;;;8.75;8.75;;;;;18.31;35.09;100272.78;5004469;27;51085;-50
2021/11/26 06:16:05;;;;;;;;;13.25;10.25;;;;;18.27;35.23;100274.31;5009634;28;51108;-49
2021/11/26 06:18:30;;;;;;;;;10.25;8.25;;;;;18.22;35.39;100274.09;5004657;27;51829;-53
2021/11/26 06:20:55;;;;;;;;;13.25;9.00;;;;;18.18;35.32;100279.19;5006743;28;51137;-49
2021/11/26 06:23:22;;;;;;;;;11.75;8.75;;;;;18.13;35.21;100276.25;5031154;27;51282;-51
2021/11/26 06:25:47;;;;;;;;;9.25;9.00;;;;;18.10;35.04;100273.97;5005071;28;51129;-52
2021/11/26 06:28:12;;;;;;;;;11.75;10.00;;;;;18.05;35.21;100263.69;4998659;27;52142;-50
2021/11/26 06:30:38;;;;;;;;;12.50;8.00;;;;;18.00;34.82;100263.50;5011252;27;51019;-51
2021/11/26 06:33:05;;;;;;;;;10.00;7.25;;;;;17.95;35.03;100257.84;5002714;27;51698;-51
2021/11/26 06:35:31;;;;;;;;;10.25;8.50;;;;;17.91;35.26;100242.03;5010039;27;51111;-52
2021/11/26 06:37:56;;;;;;;;;8.00;8.00;;;;;17.87;35.11;100231.53;5010736;28;51289;-53
2021/11/26 06:40:22;;;;;;;;;11.50;7.50;;;;;17.87;35.12;100227.94;5007181;27;52821;-50
2021/11/26 06:42:49;;;;;;;;;10.50;7.50;;;;;17.93;35.30;100223.50;5007887;27;51005;-54
2021/11/26 06:45:15;;;;;;;;;4.75;3.50;;;;;18.03;35.58;100221.09;4999683;28;51156;-53
2021/11/26 06:47:41;;;;;;;;;6.00;5.25;;;;;18.13;35.88;100215.97;5019017;27;51986;-49
2021/11/26 06:50:09;;;;;;;;;10.50;7.25;;;;;18.22;35.69;100214.63;5011434;28;51424;-51
2021/11/26 06:52:34;;;;;;;;;5.50;5.00;;;;;18.31;35.96;100205.06;4997714;27;51154;-51
2021/11/26 06:55:00;;;;;;;;;3.50;2.75;;;;;18.40;35.66;100200.16;4997448;28;51137;-54
2021/11/26 06:57:26;;;;;;;;;5.25;4.00;;;;;18.49;36.16;100198.81;4985727;28;54125;-54
2021/11/26 06:59:51;;;;;;;;;5.75;4.00;;;;;18.57;36.06;100184.00;5004316;27;51221;-54
2021/11/26 07:02:16;;;;;;;;;6.00;4.25;;;;;18.66;36.21;100188.16;5003673;27;50976;-50
2021/11/26 07:04:44;;;;;;;;;5.00;4.00;;;;;18.73;36.33;100188.91;5003745;27;52251;-53
2021/11/26 07:07:09;;;;;;;;;0.75;0.75;;;;;18.83;36.27;100186.47;4998138;28;51496;-53
2021/11/26 07:09:35;;;;;;;;;4.50;3.75;;;;;18.91;36.44;100175.22;5004740;27;51448;-53
2021/11/26 07:12:00;;;;;;;;;4.00;4.00;;;;;18.99;36.59;100174.09;5009027;27;50996;-55
2021/11/26 07:14:26;;;;;;;;;3.25;3.25;;;;;19.07;36.57;100171.03;5003342;27;51178;-52
2021/11/26 07:16:51;;;;;;;;;3.75;2.25;;;;;19.16;36.66;100163.31;5007134;27;51050;-53
2021/11/26 07:19:17;;;;;;;;;5.00;1.75;;;;;19.24;36.44;100158.34;5004632;28;51395;-52
2021/11/26 07:21:44;;;;;;;;;6.50;5.25;;;;;19.33;36.68;100156.13;5008814;28;51583;-50
2021/11/26 07:24:09;;;;;;;;;4.25;4.25;;;;;19.41;36.55;100157.72;5003783;28;51290;-53
2021/11/26 07:26:34;;;;;;;;;4.75;4.00;;;;;19.49;36.35;100147.25;4998297;27;51199;-51
2021/11/26 07:29:00;;;;;;;;;8.25;5.25;;;;;19.58;36.75;100143.13;5002424;28;51267;-55
2021/11/26 07:31:25;;;;;;;;;5.00;3.75;;;;;19.68;36.31;100139.81;5000321;27;51182;-55
2021/11/26 07:33:50;;;;;;;;;3.25;3.25;;;;;19.75;36.33;100143.31;5012090;27;51182;-51
2021/11/26 07:36:16;;;;;;;;;6.00;3.00;;;;;19.82;36.62;100134.97;5001638;28;51102;-52
2021/11/26 07:38:41;;;;;;;;;5.50;4.00;;;;;19.90;36.45;100142.88;5001289;28;51066;-53
2021/11/26 07:41:07;;;;;;;;;2.75;2.75;;;;;19.95;36.77;100129.25;4992764;28;51246;-52
2021/11/26 07:43:32;;;;;;;;;4.50;2.25;;;;;20.03;36.79;100133.59;5001329;28;51246;-53
2021/11/26 07:46:00;;;;;;;;;4.00;3.75;;;;;20.09;36.94;100122.47;5003720;28;51362;-53
2021/11/26 07:48:26;;;;;;;;;5.00;3.00;;;;;20.17;36.83;100129.53;5001939;28;51251;-53
2021/11/26 07:50:51;;;;;;;;;5.50;4.00;;;;;20.23;36.29;100127.75;5005351;27;51014;-51
2021/11/26 07:53:17;;;;;;;;;4.00;0.00;;;;;20.28;36.46;100116.88;5006144;28;51307;-52
2021/11/26 07:55:42;;;;;;;;;4.00;4.00;;;;;20.29;36.13;100111.13;5003384;27;51897;-50
2021/11/26 07:58:08;;;;;;;;;5.00;5.00;;;;;20.31;36.23;100113.63;4992133;27;51053;-53
2021/11/26 08:00:34;;;;;;;;;6.25;4.75;;;;;20.30;35.92;100115.56;4991772;28;52742;-50
2021/11/26 08:03:03;;;;;;;;;6.00;5.00;;;;;20.25;35.92;100118.19;4997643;28;51704;-50
2021/11/26 08:05:32;;;;;;;;;9.25;6.00;;;;;20.23;36.21;100111.25;5004262;28;51983;-52
2021/11/26 08:07:58;;;;;;;;;6.00;4.00;;;;;20.17;36.22;100094.63;4975028;28;51162;-53
2021/11/26 08:10:24;;;;;;;;;2.00;2.00;;;;;20.11;35.96;100090.09;4992876;27;51196;-52
2021/11/26 08:12:49;;;;;;;;;2.75;1.75;;;;;20.08;35.93;100075.97;4992896;28;51054;-48
2021/11/26 08:15:17;;;;;;;;;3.00;3.00;;;;;20.02;36.10;100066.78;4990880;28;52859;-52
2021/11/26 08:17:42;;;;;;;;;4.00;3.00;;;;;19.98;35.87;100067.47;4992476;28;51156;-53
2021/11/26 08:20:09;;;;;;;;;3.50;3.50;;;;;19.93;35.91;100054.47;4992530;27;51085;-50
2021/11/26 08:22:34;;;;;;;;;5.75;3.00;;;;;19.89;35.95;100055.97;5060393;28;51058;-51
2021/11/26 08:25:00;;;;;;;;;4.50;2.00;;;;;19.85;36.16;100054.78;4992495;28;51032;-52
2021/11/26 08:27:27;;;;;;;;;4.00;2.00;;;;;19.81;35.75;100057.19;5018557;28;51295;-53
2021/11/26 08:29:52;;;;;;;;;4.00;2.25;;;;;19.79;36.01;100061.22;5032153;28;51105;-52
2021/11/26 08:32:17;;;;;;;;;3.00;3.00;;;;;19.74;35.87;100050.97;5032297;28;51095;-52
2021/11/26 08:34:43;;;;;;;;;3.75;2.00;;;;;19.70;35.97;100049.78;5031734;28;52357;-50
2021/11/26 08:37:08;;;;;;;;;4.50;3.25;;;;;19.67;36.04;100063.97;5031976;28;51068;-51
2021/11/26 08:39:33;;;;;;;;;5.25;2.50;;;;;19.64;35.82;100047.94;5031752;28;51173;-51
2021/11/26 08:41:59;;;;;;;;;3.50;3.00;;;;;19.60;35.97;100053.09;5032112;28;51172;-53
2021/11/26 08:44:24;;;;;;;;;3.50;3.25;;;;;19.57;36.12;100041.72;5031289;28;51939;-52
2021/11/26 08:46:50;;;;;;;;;4.00;3.00;;;;;19.54;35.94;100043.00;5032266;28;51004;-50
2021/11/26 08:49:15;;;;;;;;;6.00;3.00;;;;;19.52;36.36;100036.91;5034824;28;51521;-52
2021/11/26 08:51:42;;;;;;;;;3.25;2.50;;;;;19.49;35.95;100028.31;5034882;28;51086;-51
2021/11/26 08:54:08;;;;;;;;;3.25;3.25;;;;;19.46;36.05;100040.59;5034685;28;51824;-51
2021/11/26 08:56:33;;;;;;;;;3.75;2.25;;;;;19.43;36.42;100041.06;5034779;28;50937;-51
2021/11/26 08:59:01;;;;;;;;;4.25;2.00;;;;;19.41;36.30;100037.72;5034418;28;50920;-51
2021/11/26 09:01:33;;;;;;;;;2.00;2.00;;;;;19.39;36.35;100030.78;5034876;28;51121;-51
2021/11/26 09:03:59;;;;;;;;;2.00;2.00;;;;;19.36;36.25;100034.81;5034424;28;51073;-52
2021/11/26 09:06:24;;;;;;;;;3.25;2.50;;;;;19.34;36.18;100036.97;5034667;28;50983;-53
2021/11/26 09:08:50;;;;;;;;;4.00;3.00;;;;;19.30;36.34;100031.13;5034484;28;50944;-51
2021/11/26 09:11:16;;;;;;;;;4.50;4.50;;;;;19.31;36.21;100026.47;5035060;28;51201;-50
2021/11/26 09:13:41;;;;;;;;;3.00;2.00;;;;;19.28;36.34;100018.69;5034632;28;51616;-53
2021/11/26 09:16:07;;;;;;;;;2.00;2.00;;;;;19.24;36.17;100004.59;5034470;28;51019;-53
2021/11/26 09:18:32;;;;;;;;;3.00;2.00;;;;;19.24;36.17;100003.75;5016385;28;51607;-53
2021/11/26 09:20:58;;;;;;;;;4.00;3.00;;;;;19.22;36.04;99993.00;5034790;28;51121;-51
2021/11/26 09:23:25;;;;;;;;;2.00;2.00;;;;;19.21;36.33;99982.25;5022477;28;51019;-50
2021/11/26 09:25:50;;;;;;;;;3.00;2.00;;;;;19.19;36.14;99979.75;5014809;28;51469;-53
2021/11/26 09:28:16;;;;;;;;;3.50;2.75;;;;;19.17;36.17;99970.06;5103752;27;51167;-51
2021/11/26 09:30:43;;;;;;;;;2.75;2.75;;;;;19.17;36.25;99965.41;5034980;28;51408;-50
2021/11/26 09:33:09;;;;;;;;;2.75;2.00;;;;;19.15;36.28;99955.72;5034177;28;51292;-51
2021/11/26 09:35:34;;;;;;;;;6.50;2.25;;;;;19.15;36.32;99953.00;5034383;28;50952;-49
2021/11/26 09:38:00;;;;;;;;;4.00;2.75;;;;;19.13;36.34;99949.66;5034150;28;50975;-52
2021/11/26 09:40:29;;;;;;;;;1.75;1.75;;;;;19.11;36.24;99944.38;5034245;28;51377;-52
2021/11/26 09:42:55;;;;;;;;;1.25;1.00;;;;;19.10;36.25;99936.41;5015886;27;52542;-50
2021/11/26 09:45:23;;;;;;;;;1.25;1.25;;;;;19.10;36.20;99929.00;5034191;28;51002;-47
2021/11/26 09:47:50;;;;;;;;;4.00;1.25;;;;;19.08;36.22;99928.41;5033669;28;51065;-50
2021/11/26 09:50:16;;;;;;;;;2.00;2.00;;;;;19.07;36.49;99920.38;5034266;28;50948;-50
2021/11/26 09:52:42;;;;;;;;;3.00;1.00;;;;;19.06;36.47;99916.78;5015477;28;52742;-51
2021/11/26 09:55:10;;;;;;;;;2.00;2.00;;;;;19.06;36.16;99910.47;5033846;28;51184;-52
2021/11/26 09:57:39;;;;;;;;;3.00;2.00;;;;;19.05;36.35;99906.88;5034012;28;51057;-51
2021/11/26 10:00:06;;;;;;;;;1.75;1.75;;;;;19.04;36.38;99896.97;5009761;27;51127;-50
2021/11/26 10:02:31;;;;;;;;;0.75;0.75;;;;;19.04;36.34;99891.50;5013515;27;51794;-52
2021/11/26 10:05:08;;;;;;;;;3.00;3.00;;;;;19.02;36.36;99891.72;5013700;28;51085;-51
2021/11/26 10:07:50;;;;;;;;;2.75;2.75;;;;;19.00;36.43;99882.91;4996170;28;51057;-51
2021/11/26 10:10:25;;;;;;;;;2.00;2.00;;;;;19.00;36.38;99874.69;5013954;28;51300;-46
2021/11/26 10:13:12;;;;;;;;;2.00;2.00;;;;;18.99;36.44;99878.50;5013556;27;51606;-52
2021/11/26 10:15:43;;;;;;;;;3.25;3.25;;;;;18.95;36.21;99862.72;5013357;27;51255;-51
2021/11/26 10:18:19;;;;;;;;;3.50;2.00;;;;;18.96;36.20;99862.47;5013335;27;51314;-51
2021/11/26 10:21:02;;;;;;;;;2.00;2.00;;;;;18.95;36.36;99858.06;5013552;27;51027;-52
2021/11/26 10:23:37;;;;;;;;;2.00;0.75;;;;;18.93;36.48;99838.25;5080431;27;51713;-50
2021/11/26 10:26:25;;;;;;;;;2.75;1.75;;;;;18.93;36.43;99826.44;5088974;27;51086;-50
2021/11/26 10:28:54;;;;;;;;;1.00;1.00;;;;;18.93;36.32;99820.97;4995364;28;51168;-52
2021/11/26 10:31:31;;;;;;;;;4.75;2.00;;;;;18.90;36.43;99804.97;4995512;28;51299;-50
2021/11/26 10:33:59;;;;;;;;;3.75;2.75;;;;;18.90;36.51;99807.72;4994920;28;52971;-52
2021/11/26 10:36:25;;;;;;;;;2.00;2.00;;;;;18.89;36.55;99797.81;4995186;28;51188;-52
2021/11/26 10:38:51;;;;;;;;;2.00;1.00;;;;;18.86;36.61;99788.16;5013572;27;51122;-52
2021/11/26 10:41:25;;;;;;;;;3.00;3.00;;;;;18.87;36.40;99784.34;4995342;28;51087;-51
2021/11/26 10:43:55;;;;;;;;;2.25;2.25;;;;;18.85;36.45;99772.75;5013118;28;51629;-48
2021/11/26 10:46:42;;;;;;;;;4.00;1.75;;;;;18.84;36.40;99776.56;5013143;28;51362;-51
2021/11/26 10:59:59;;;;;;;;;1.75;1.75;;;;;18.81;36.28;99746.03;4996774;28;51086;-51
2021/11/26 11:02:28;;;;;;;;;1.75;1.75;;;;;18.80;36.46;99738.88;5013310;28;51025;-49
2021/11/26 11:04:54;;;;;;;;;3.00;2.00;;;;;18.79;36.61;99727.06;5012375;28;51078;-50
2021/11/26 11:07:20;;;;;;;;;2.75;1.75;;;;;18.79;36.55;99726.22;5012893;28;51149;-50
2021/11/26 11:09:48;;;;;;;;;1.25;1.00;;;;;18.78;36.39;99725.41;5012659;28;51220;-52
2021/11/26 11:12:14;;;;;;;;;2.00;2.00;;;;;18.78;36.42;99713.59;5012974;28;51371;-52
2021/11/26 11:14:52;;;;;;;;;2.00;1.50;;;;;18.77;36.56;99707.28;4993069;27;53006;-48
2021/11/26 11:17:19;;;;;;;;;3.00;1.75;;;;;18.75;36.40;99687.44;4991826;27;51645;-51
2021/11/26 11:19:45;;;;;;;;;4.00;2.25;;;;;18.75;36.05;99679.22;5007511;28;51418;-49
2021/11/26 11:22:10;;;;;;;;;2.75;1.75;;;;;18.79;36.17;99666.72;5006880;27;51158;-53
2021/11/26 11:24:36;;;;;;;;;2.75;2.75;;;;;18.88;36.33;99656.22;5004427;28;51851;-56
2021/11/26 11:27:02;;;;;;;;;3.00;2.00;;;;;18.96;36.17;99645.66;5007422;27;51064;-53
2021/11/26 11:29:27;;;;;;;;;5.75;5.00;;;;;19.06;36.26;99649.72;4997876;28;51367;-51
2021/11/26 11:31:56;;;;;;;;;22.00;18.00;;;;;19.18;36.21;99634.09;5002611;28;51152;-52
2021/11/26 11:34:26;;;;;;;;;50.00;36.50;;;;;19.28;35.97;99629.63;5014040;27;52147;-53